createdAt,value
2024-02-24T00:01:35.383Z,98927.81
2024-02-24T00:04:48.627Z,98925.59
2024-02-24T00:07:54.509Z,98923.16
2024-02-24T00:11:01.893Z,98926.19
2024-02-24T00:14:23.741Z,98922.75
2024-02-24T00:17:30.862Z,98919.16
2024-02-24T00:20:37.720Z,98927.00
2024-02-24T00:23:42.581Z,98923.84
2024-02-24T00:26:49.777Z,98927.97
2024-02-24T00:29:53.421Z,98930.28
2024-02-24T00:32:59.351Z,98924.63
2024-02-24T00:36:03.175Z,98935.50
2024-02-24T00:39:07.399Z,98934.13
2024-02-24T00:42:12.453Z,98936.59
2024-02-24T00:45:19.950Z,98929.06
2024-02-24T00:48:24.294Z,98924.66
2024-02-24T00:51:27.571Z,98925.75
2024-02-24T00:54:36.054Z,98920.84
2024-02-24T00:57:48.956Z,98924.00
2024-02-24T01:00:54.690Z,98936.34
2024-02-24T01:03:59.445Z,98928.09
2024-02-24T01:07:03.358Z,98921.81
2024-02-24T01:10:06.601Z,98909.88
2024-02-24T01:13:10.593Z,98903.28
2024-02-24T01:16:14.844Z,98901.38
2024-02-24T01:19:28.822Z,98901.53
2024-02-24T01:22:35.565Z,98903.28
2024-02-24T01:25:53.704Z,98910.00
2024-02-24T01:29:19.574Z,98907.69
2024-02-24T01:32:28.056Z,98903.28
2024-02-24T01:35:56.546Z,98907.28
2024-02-24T01:39:15.632Z,98897.94
2024-02-24T01:42:22.018Z,98891.66
2024-02-24T01:45:24.969Z,98902.87
2024-02-24T01:48:27.620Z,98899.75
2024-02-24T01:51:32.552Z,98898.22
2024-02-24T01:54:37.681Z,98892.34
2024-02-24T01:57:43.654Z,98903.31
2024-02-24T02:00:50.448Z,98898.34
2024-02-24T02:03:56.962Z,98898.34
2024-02-24T02:07:30.262Z,98903.31
2024-02-24T02:10:48.783Z,98901.38
2024-02-24T02:13:52.172Z,98908.53
2024-02-24T02:16:59.202Z,98909.47
2024-02-24T02:20:05.702Z,98918.94
2024-02-24T02:23:15.572Z,98914.81
2024-02-24T02:26:20.806Z,98920.69
2024-02-24T02:29:24.187Z,98921.94
2024-02-24T02:32:33.725Z,98921.66
2024-02-24T02:35:36.978Z,98919.34
2024-02-24T02:38:45.244Z,98919.34
2024-02-24T02:42:00.819Z,98920.16
2024-02-24T02:45:10.971Z,98928.78
2024-02-24T02:48:23.530Z,98949.78
2024-02-24T02:54:40.105Z,98938.50
2024-02-24T02:57:43.218Z,98946.19
2024-02-24T03:00:58.571Z,98954.81
2024-02-24T03:04:03.218Z,98946.88
2024-02-24T03:07:11.507Z,98953.28
2024-02-24T03:10:20.348Z,98968.09
2024-02-24T03:13:27.267Z,98977.00
2024-02-24T03:16:30.748Z,98985.09
2024-02-24T03:19:35.241Z,98994.22
2024-02-24T03:22:43.359Z,99000.44
2024-02-24T03:25:52.518Z,99008.25
2024-02-24T03:29:08.526Z,99006.31
2024-02-24T03:32:12.352Z,99020.53
2024-02-24T03:35:19.320Z,99022.59
2024-02-24T03:38:28.291Z,99022.31
2024-02-24T03:41:35.060Z,99030.12
2024-02-24T03:44:38.595Z,99013.34
2024-02-24T03:47:42.076Z,99014.31
2024-02-24T03:50:46.134Z,99016.81
2024-02-24T03:53:49.407Z,99025.53
2024-02-24T03:56:55.359Z,99016.84
2024-02-24T03:59:58.101Z,99019.00
2024-02-24T04:03:04.856Z,99025.87
2024-02-24T04:06:09.954Z,99028.59
2024-02-24T04:09:13.100Z,99041.31
2024-02-24T04:12:16.084Z,99037.84
2024-02-24T04:15:22.020Z,99033.72
2024-02-24T04:18:24.742Z,99038.53
2024-02-24T04:21:27.943Z,99048.34
2024-02-24T04:24:30.432Z,99042.78
2024-02-24T04:27:32.770Z,99040.87
2024-02-24T04:30:36.529Z,99045.91
2024-02-24T04:33:39.332Z,99037.53
2024-02-24T04:36:42.761Z,99042.88
2024-02-24T04:39:45.157Z,99043.97
2024-02-24T04:42:47.739Z,99046.88
2024-02-24T04:45:50.413Z,99049.88
2024-02-24T04:48:53.372Z,99048.78
2024-02-24T04:51:56.055Z,99059.47
2024-02-24T04:54:59.339Z,99053.19
2024-02-24T04:58:01.876Z,99056.03
2024-02-24T05:01:04.511Z,99052.19
2024-02-24T05:04:07.207Z,99051.06
2024-02-24T05:07:09.995Z,99053.09
2024-02-24T05:10:12.763Z,99054.66
2024-02-24T05:13:15.196Z,99059.19
2024-02-24T05:16:18.135Z,99058.63
2024-02-24T05:19:20.767Z,99059.03
2024-02-24T05:22:23.533Z,99051.59
2024-02-24T05:25:26.053Z,99060.03
2024-02-24T05:28:29.520Z,99074.94
2024-02-24T05:31:32.297Z,99084.44
2024-02-24T05:34:34.748Z,99078.31
2024-02-24T05:37:37.523Z,99088.13
2024-02-24T05:40:39.732Z,99088.38
2024-02-24T05:43:42.525Z,99083.53
2024-02-24T05:46:44.869Z,99100.22
2024-02-24T05:49:47.892Z,99108.41
2024-02-24T05:52:51.713Z,99122.34
2024-02-24T05:55:54.365Z,99128.81
2024-02-24T05:58:57.096Z,99134.59
2024-02-24T06:01:59.531Z,99135.69
2024-02-24T06:05:01.801Z,99139.81
2024-02-24T06:08:04.818Z,99144.09
2024-02-24T06:11:09.045Z,99151.44
2024-02-24T06:14:12.047Z,99158.03
2024-02-24T06:17:15.147Z,99171.28
2024-02-24T06:20:17.793Z,99162.78
2024-02-24T06:23:20.779Z,99156.13
2024-02-24T06:26:23.630Z,99161.88
2024-02-24T06:29:26.894Z,99172.97
2024-02-24T06:32:30.974Z,99179.94
2024-02-24T06:35:34.115Z,99186.56
2024-02-24T06:38:37.274Z,99193.16
2024-02-24T06:41:40.258Z,99192.41
2024-02-24T06:44:43.937Z,99203.63
2024-02-24T06:47:46.976Z,99210.34
2024-02-24T06:50:50.361Z,99211.88
2024-02-24T06:53:57.855Z,99208.91
2024-02-24T06:57:01.584Z,99209.84
2024-02-24T07:00:04.300Z,99216.97
2024-02-24T07:03:06.232Z,99217.78
2024-02-24T07:06:09.228Z,99222.47
2024-02-24T07:09:11.511Z,99224.22
2024-02-24T07:12:14.570Z,99231.75
2024-02-24T07:15:17.193Z,99239.50
2024-02-24T07:18:20.663Z,99241.13
2024-02-24T07:21:24.028Z,99252.53
2024-02-24T07:24:26.992Z,99257.62
2024-02-24T07:27:30.242Z,99261.78
2024-02-24T07:30:33.282Z,99261.44
2024-02-24T07:33:35.926Z,99274.78
2024-02-24T07:36:43.252Z,99284.59
2024-02-24T07:39:46.055Z,99279.31
2024-02-24T07:42:52.440Z,99288.50
2024-02-24T07:45:56.212Z,99288.25
2024-02-24T07:49:08.147Z,99295.16
2024-02-24T07:52:13.368Z,99304.16
2024-02-24T07:55:16.760Z,99310.66
2024-02-24T07:58:19.239Z,99316.84
2024-02-24T08:01:22.501Z,99325.44
2024-02-24T08:04:34.998Z,99329.69
2024-02-24T08:11:14.746Z,99344.56
2024-02-24T08:14:23.515Z,99349.47
2024-02-24T08:17:27.021Z,99352.19
2024-02-24T08:20:30.975Z,99359.31
2024-02-24T08:23:35.978Z,99369.00
2024-02-24T08:26:45.733Z,99373.22
2024-02-24T08:30:04.126Z,99374.25
2024-02-24T08:33:12.671Z,99359.16
2024-02-24T08:36:28.563Z,99360.66
2024-02-24T08:39:32.675Z,99367.03
2024-02-24T08:42:36.176Z,99371.47
2024-02-24T08:45:47.533Z,99380.00
2024-02-24T08:48:51.331Z,99385.59
2024-02-24T08:52:04.972Z,99383.84
2024-02-24T08:55:10.658Z,99380.84
2024-02-24T08:58:17.939Z,99389.53
2024-02-24T09:01:21.084Z,99391.09
2024-02-24T09:04:23.912Z,99396.25
2024-02-24T09:07:35.955Z,99398.72
2024-02-24T09:10:39.359Z,99398.47
2024-02-24T09:13:42.623Z,99414.28
2024-02-24T09:16:48.897Z,99423.56
2024-02-24T09:19:57.919Z,99428.16
2024-02-24T09:23:07.470Z,99423.13
2024-02-24T09:26:19.916Z,99431.22
2024-02-24T09:29:25.862Z,99431.50
2024-02-24T09:32:30.126Z,99430.28
2024-02-24T09:35:42.632Z,99443.06
2024-02-24T09:38:45.599Z,99445.13
2024-02-24T09:41:49.751Z,99453.72
2024-02-24T09:45:04.050Z,99454.41
2024-02-24T09:48:08.320Z,99455.53
2024-02-24T09:51:10.740Z,99461.66
2024-02-24T09:54:14.339Z,99472.97
2024-02-24T09:57:24.192Z,99485.75
2024-02-24T10:00:28.395Z,99495.19
2024-02-24T10:03:33.523Z,99501.44
2024-02-24T10:06:40.081Z,99505.44
2024-02-24T10:09:43.250Z,99503.81
2024-02-24T10:12:59.660Z,99512.31
2024-02-24T10:16:15.011Z,99513.44
2024-02-24T10:19:17.598Z,99505.53
2024-02-24T10:22:20.688Z,99503.75
2024-02-24T10:25:40.562Z,99507.16
2024-02-24T10:28:44.688Z,99501.75
2024-02-24T10:31:48.803Z,99503.75
2024-02-24T10:34:54.626Z,99498.22
2024-02-24T10:38:11.555Z,99496.78
2024-02-24T10:41:27.964Z,99507.97
2024-02-24T10:44:36.120Z,99513.56
2024-02-24T10:47:39.709Z,99514.75
2024-02-24T10:50:52.485Z,99516.00
2024-02-24T10:53:57.163Z,99517.47
2024-02-24T10:57:08.070Z,99518.78
2024-02-24T11:00:30.269Z,99522.41
2024-02-24T11:03:49.258Z,99517.00
2024-02-24T11:06:59.078Z,99520.47
2024-02-24T11:10:35.595Z,99523.25
2024-02-24T11:13:52.315Z,99521.44
2024-02-24T11:17:06.648Z,99513.19
2024-02-24T11:20:09.525Z,99524.22
2024-02-24T11:23:23.088Z,99513.37
2024-02-24T11:26:28.797Z,99516.34
2024-02-24T11:29:39.808Z,99521.63
2024-02-24T11:32:42.148Z,99519.31
2024-02-24T11:35:44.866Z,99516.69
2024-02-24T11:38:53.955Z,99517.00
2024-02-24T11:42:06.618Z,99517.16
2024-02-24T11:45:15.545Z,99523.72
2024-02-24T11:48:23.513Z,99527.34
2024-02-24T11:51:32.691Z,99532.75
2024-02-24T11:54:50.320Z,99529.78
2024-02-24T11:57:53.121Z,99534.72
2024-02-24T12:00:59.685Z,99547.03
2024-02-24T12:04:03.665Z,99554.09
2024-02-24T12:07:08.991Z,99556.41
2024-02-24T12:10:27.217Z,99552.50
2024-02-24T12:13:30.182Z,99557.41
2024-02-24T12:16:35.816Z,99553.31
2024-02-24T12:19:40.027Z,99556.63
2024-02-24T12:22:43.796Z,99550.69
2024-02-24T12:25:58.730Z,99545.91
2024-02-24T12:29:01.576Z,99550.69
2024-02-24T12:32:04.005Z,99554.16
2024-02-24T12:35:13.758Z,99555.47
2024-02-24T12:38:22.099Z,99556.44
2024-02-24T12:41:24.770Z,99558.94
2024-02-24T12:44:36.357Z,99554.03
2024-02-24T12:47:39.822Z,99549.09
2024-02-24T12:50:43.262Z,99555.50
2024-02-24T12:53:46.907Z,99552.03
2024-02-24T12:56:49.797Z,99560.75
2024-02-24T12:59:53.696Z,99563.72
2024-02-24T13:03:03.689Z,99561.25
2024-02-24T13:06:12.028Z,99563.38
2024-02-24T13:09:17.222Z,99565.00
2024-02-24T13:12:20.163Z,99573.06
2024-02-24T13:15:28.399Z,99575.34
2024-02-24T13:18:35.539Z,99563.47
2024-02-24T13:21:38.860Z,99572.25
2024-02-24T13:24:43.708Z,99569.44
2024-02-24T13:27:48.538Z,99574.59
2024-02-24T13:30:51.213Z,99569.38
2024-02-24T13:33:58.662Z,99568.84
2024-02-24T13:37:01.503Z,99575.56
2024-02-24T13:40:09.207Z,99577.38
2024-02-24T13:43:13.767Z,99579.06
2024-02-24T13:46:17.149Z,99579.09
2024-02-24T13:49:23.935Z,99578.78
2024-02-24T13:52:27.801Z,99573.53
2024-02-24T13:55:30.072Z,99582.16
2024-02-24T13:58:33.178Z,99581.41
2024-02-24T14:01:41.820Z,99583.53
2024-02-24T14:04:47.210Z,99582.91
2024-02-24T14:07:50.145Z,99581.31
2024-02-24T14:10:53.123Z,99578.25
2024-02-24T14:13:55.849Z,99583.81
2024-02-24T14:17:02.401Z,99593.19
2024-02-24T14:20:19.938Z,99599.59
2024-02-24T14:23:31.471Z,99590.44
2024-02-24T14:26:34.649Z,99591.88
2024-02-24T14:29:37.273Z,99597.44
2024-02-24T14:32:39.686Z,99600.84
2024-02-24T14:35:45.603Z,99597.22
2024-02-24T14:38:54.786Z,99591.13
2024-02-24T14:41:57.612Z,99592.91
2024-02-24T14:45:01.388Z,99591.56
2024-02-24T14:48:14.676Z,99586.44
2024-02-24T14:51:18.837Z,99592.28
2024-02-24T14:54:43.929Z,99595.91
2024-02-24T14:57:56.889Z,99606.72
2024-02-24T15:01:00.717Z,99601.41
2024-02-24T15:04:20.425Z,99607.56
2024-02-24T15:07:24.566Z,99615.13
2024-02-24T15:10:28.584Z,99617.69
2024-02-24T15:13:38.694Z,99619.66
2024-02-24T15:16:50.545Z,99611.47
2024-02-24T15:19:54.136Z,99618.97
2024-02-24T15:23:11.867Z,99613.97
2024-02-24T15:26:15.500Z,99616.22
2024-02-24T15:29:25.451Z,99615.84
2024-02-24T15:32:37.430Z,99622.94
2024-02-24T15:35:59.058Z,99621.06
2024-02-24T15:39:03.175Z,99623.12
2024-02-24T15:42:11.637Z,99630.31
2024-02-24T15:45:15.314Z,99630.44
2024-02-24T15:48:18.691Z,99631.75
2024-02-24T15:51:24.597Z,99636.44
2024-02-24T15:54:31.771Z,99637.56
2024-02-24T15:57:39.528Z,99646.00
2024-02-24T16:00:58.080Z,99644.94
2024-02-24T16:07:49.966Z,99645.44
2024-02-24T16:11:01.499Z,99653.72
2024-02-24T16:14:08.806Z,99659.03
2024-02-24T16:17:12.287Z,99669.22
2024-02-24T16:23:38.209Z,99666.37
2024-02-24T16:26:41.694Z,99675.19
2024-02-24T16:29:44.630Z,99671.63
2024-02-24T16:32:48.983Z,99669.44
2024-02-24T16:35:52.746Z,99682.94
2024-02-24T16:38:57.617Z,99689.97
2024-02-24T16:42:12.958Z,99693.41
2024-02-24T16:45:16.335Z,99696.59
2024-02-24T16:48:24.170Z,99696.47
2024-02-24T16:52:19.144Z,99697.31
2024-02-24T16:55:23.121Z,99699.91
2024-02-24T16:58:27.711Z,99700.62
2024-02-24T17:01:34.087Z,99707.12
2024-02-24T17:04:39.561Z,99705.31
2024-02-24T17:07:42.211Z,99711.94
2024-02-24T17:10:50.785Z,99717.72
2024-02-24T17:14:00.074Z,99718.81
2024-02-24T17:21:28.755Z,99715.78
2024-02-24T17:24:33.520Z,99725.44
2024-02-24T17:27:41.551Z,99724.88
2024-02-24T17:31:11.573Z,99733.16
2024-02-24T17:38:05.699Z,99746.72
2024-02-24T17:41:15.044Z,99742.44
2024-02-24T17:44:19.974Z,99744.38
2024-02-24T17:47:37.020Z,99738.03
2024-02-24T17:50:50.772Z,99736.50
2024-02-24T17:54:10.744Z,99736.28
2024-02-24T17:57:21.383Z,99740.38
2024-02-24T18:00:29.189Z,99735.66
2024-02-24T18:03:38.935Z,99739.06
2024-02-24T18:07:04.487Z,99748.84
2024-02-24T18:10:14.939Z,99747.44
2024-02-24T18:13:17.913Z,99745.50
2024-02-24T18:16:25.164Z,99740.53
2024-02-24T18:19:28.352Z,99741.22
2024-02-24T18:22:44.856Z,99739.00
2024-02-24T18:25:50.159Z,99739.44
2024-02-24T18:29:18.455Z,99738.56
2024-02-24T18:32:42.062Z,99745.69
2024-02-24T18:35:54.162Z,99742.16
2024-02-24T18:38:56.892Z,99749.16
2024-02-24T18:42:21.160Z,99745.03
2024-02-24T18:48:57.721Z,99751.63
2024-02-24T18:52:10.305Z,99740.84
2024-02-24T18:55:15.860Z,99745.06
2024-02-24T18:58:54.033Z,99745.72
2024-02-24T19:01:57.693Z,99750.03
2024-02-24T19:05:09.921Z,99756.06
2024-02-24T19:08:23.631Z,99749.41
2024-02-24T19:11:52.450Z,99769.03
2024-02-24T19:14:58.615Z,99772.84
2024-02-24T19:18:35.122Z,99765.78
2024-02-24T19:21:55.467Z,99759.41
2024-02-24T19:24:58.745Z,99759.41
2024-02-24T19:31:31.243Z,99774.06
2024-02-24T19:34:34.018Z,99766.25
2024-02-24T19:37:37.619Z,99774.41
2024-02-24T19:40:45.061Z,99770.38
2024-02-24T19:43:52.769Z,99778.34
2024-02-24T19:47:04.306Z,99778.34
2024-02-24T19:50:07.193Z,99774.66
2024-02-24T19:56:31.898Z,99787.97
2024-02-24T19:59:43.356Z,99786.75
2024-02-24T20:03:10.812Z,99781.63
2024-02-24T20:06:13.562Z,99780.59
2024-02-24T20:09:18.380Z,99779.44
2024-02-24T20:12:32.180Z,99782.28
2024-02-24T20:15:35.336Z,99778.72
2024-02-24T20:18:39.501Z,99775.13
2024-02-24T20:21:42.351Z,99770.88
2024-02-24T20:24:50.195Z,99769.81
2024-02-24T20:28:10.218Z,99780.59
2024-02-24T20:31:14.545Z,99773.28
2024-02-24T20:34:17.648Z,99779.09
2024-02-24T20:37:19.971Z,99780.44
2024-02-24T20:40:48.434Z,99782.56
2024-02-24T20:44:02.441Z,99780.44
2024-02-24T20:47:05.700Z,99785.91
2024-02-24T20:50:13.687Z,99787.09
2024-02-24T20:53:17.516Z,99786.50
2024-02-24T20:56:22.751Z,99782.47
2024-02-24T20:59:33.577Z,99773.59
2024-02-24T21:02:46.258Z,99785.66
2024-02-24T21:05:58.533Z,99786.16
2024-02-24T21:09:02.119Z,99799.19
2024-02-24T21:12:38.228Z,99795.97
2024-02-24T21:15:41.855Z,99793.03
2024-02-24T21:18:44.957Z,99811.63
2024-02-24T21:22:29.555Z,99823.03
2024-02-24T21:25:33.262Z,99820.75
2024-02-24T21:28:55.319Z,99822.41
2024-02-24T21:32:02.828Z,99816.00
2024-02-24T21:35:07.064Z,99818.25
2024-02-24T21:38:18.316Z,99820.72
2024-02-24T21:41:24.894Z,99834.13
2024-02-24T21:44:29.738Z,99837.09
2024-02-24T21:47:32.753Z,99836.50
2024-02-24T21:50:49.071Z,99828.69
2024-02-24T21:53:51.955Z,99818.03
2024-02-24T21:56:55.952Z,99831.44
2024-02-24T21:59:59.182Z,99833.22
2024-02-24T22:03:18.743Z,99835.81
2024-02-24T22:06:22.190Z,99826.06
2024-02-24T22:16:43.063Z,99812.22
2024-02-24T22:19:47.113Z,99821.53
2024-02-24T22:22:49.990Z,99824.03
2024-02-24T22:26:35.303Z,99821.03
2024-02-24T22:29:45.168Z,99821.19
2024-02-24T22:32:57.036Z,99836.81
2024-02-24T22:36:26.892Z,99826.28
2024-02-24T22:39:38.332Z,99830.78
2024-02-24T22:42:47.461Z,99818.81
2024-02-24T22:45:50.091Z,99825.19
2024-02-24T22:49:03.413Z,99826.03
2024-02-24T22:52:07.982Z,99816.66
2024-02-24T22:55:16.179Z,99810.13
2024-02-24T22:58:26.239Z,99809.78
2024-02-24T23:01:42.344Z,99806.22
2024-02-24T23:04:46.181Z,99805.25
2024-02-24T23:07:48.794Z,99802.31
